Time;durP1;ratioP1;P1;durP2;ratioP2;P2;SDS_P1;SDS_P2;PMS_P1;PMS_P2;Temp;Humidity;BMP_temperature;BMP_pressure;BME280_temperature;BME280_humidity;BME280_pressure;Samples;Min_cycle;Max_cycle;Signal;HPM_P1;HPM_P2
2023/11/29 00:04:17;;;;;;;0.00;0.00;;;;;;;-3.37;79.52;100131.50;15746232;28;20463;-54
2023/11/29 00:11:56;;;;;;;0.20;0.20;;;;;;;-3.56;79.89;100120.97;15746446;28;20040;-53
2023/11/29 00:19:33;;;;;;;0.70;0.70;;;;;;;-3.79;80.27;100123.78;15750147;28;20063;-50
2023/11/29 00:27:07;;;;;;;0.00;0.00;;;;;;;-3.62;79.29;100130.22;15739481;28;20039;-54
2023/11/29 00:34:41;;;;;;;1.52;0.20;;;;;;;-3.41;78.76;100123.06;15726606;28;20103;-56
2023/11/29 00:42:15;;;;;;;0.00;0.00;;;;;;;-3.35;78.58;100119.91;15705586;28;20048;-54
2023/11/29 00:49:52;;;;;;;0.28;0.28;;;;;;;-3.53;79.31;100124.16;15741837;28;20521;-53
2023/11/29 00:57:26;;;;;;;0.10;0.10;;;;;;;-3.28;79.78;100103.59;15722266;28;20064;-51
2023/11/29 01:05:01;;;;;;;0.00;0.00;;;;;;;-3.33;78.16;100101.41;15719695;28;20086;-51
2023/11/29 01:12:35;;;;;;;0.25;0.25;;;;;;;-3.23;77.14;100101.41;15704231;28;20059;-51
2023/11/29 01:20:12;;;;;;;0.05;0.05;;;;;;;-3.49;77.61;100093.25;15721117;28;20478;-53
2023/11/29 01:27:46;;;;;;;0.05;0.05;;;;;;;-3.68;78.44;100087.00;15722278;28;20457;-54
2023/11/29 01:35:21;;;;;;;0.10;0.10;;;;;;;-3.99;78.84;100075.72;15720059;28;20095;-51
2023/11/29 01:42:55;;;;;;;0.00;0.00;;;;;;;-4.28;79.90;100082.66;15721676;28;20040;-51
2023/11/29 01:50:36;;;;;;;0.00;0.00;;;;;;;-4.47;80.62;100076.34;15724196;28;20463;-51
2023/11/29 01:58:10;;;;;;;0.03;0.03;;;;;;;-4.47;81.18;100067.69;15723016;28;20440;-51
2023/11/29 02:05:50;;;;;;;0.00;0.00;;;;;;;-4.51;81.10;100051.38;15722983;28;20052;-54
2023/11/29 02:13:24;;;;;;;0.00;0.00;;;;;;;-3.98;79.57;100027.56;15736110;28;20445;-51
2023/11/29 02:20:59;;;;;;;0.20;0.20;;;;;;;-3.72;78.85;100019.22;15736648;28;20039;-56
2023/11/29 02:28:35;;;;;;;0.00;0.00;;;;;;;-3.76;80.14;100010.78;15740770;28;20491;-52
2023/11/29 02:36:09;;;;;;;0.00;0.00;;;;;;;-3.80;79.89;99996.28;15706593;28;20043;-54
2023/11/29 02:43:50;;;;;;;0.00;0.00;;;;;;;-3.58;79.56;99994.38;15722382;28;20048;-50
2023/11/29 02:51:23;;;;;;;0.00;0.00;;;;;;;-3.48;79.55;99988.16;15735195;28;20049;-51
2023/11/29 02:58:59;;;;;;;0.00;0.00;;;;;;;-3.31;78.76;99978.78;15733826;28;20452;-50
2023/11/29 03:06:32;;;;;;;0.00;0.00;;;;;;;-3.45;79.31;99972.16;15716551;28;20687;-49
2023/11/29 03:14:07;;;;;;;0.00;0.00;;;;;;;-3.54;79.22;99962.50;15715125;28;20135;-51
2023/11/29 03:21:42;;;;;;;0.40;0.40;;;;;;;-3.35;79.17;99943.28;15699135;28;20106;-51
2023/11/29 03:29:19;;;;;;;0.40;0.40;;;;;;;-3.46;79.35;99932.94;15726974;28;20049;-51
2023/11/29 03:36:53;;;;;;;0.70;0.55;;;;;;;-3.61;79.52;99901.06;15728625;22;20496;-73
2023/11/29 03:44:33;;;;;;;0.22;0.22;;;;;;;-3.76;80.42;99900.66;15723240;28;20040;-73
2023/11/29 03:52:06;;;;;;;0.00;0.00;;;;;;;-3.68;80.24;99876.38;15722759;28;20045;-73
2023/11/29 03:59:41;;;;;;;0.00;0.00;;;;;;;-3.70;80.27;99862.56;15722765;28;20055;-72
2023/11/29 04:07:20;;;;;;;0.00;0.00;;;;;;;-3.53;79.08;99851.34;15713481;28;20524;-73
2023/11/29 04:14:56;;;;;;;0.55;0.45;;;;;;;-3.34;79.39;99837.38;15722917;28;20053;-73
2023/11/29 04:22:37;;;;;;;0.00;0.00;;;;;;;-3.34;78.05;99829.50;15720876;28;20044;-73
2023/11/29 04:30:12;;;;;;;0.00;0.00;;;;;;;-3.46;78.80;99792.09;15720226;28;20048;-73
2023/11/29 04:37:47;;;;;;;0.03;0.03;;;;;;;-3.43;77.54;99781.31;15714301;28;20296;-72
2023/11/29 04:45:24;;;;;;;0.00;0.00;;;;;;;-3.17;77.18;99805.13;15712102;28;20036;-72
2023/11/29 04:52:57;;;;;;;0.98;0.65;;;;;;;-3.26;77.71;99798.13;15720020;28;20105;-73
2023/11/29 05:00:33;;;;;;;0.00;0.00;;;;;;;-2.79;76.17;99787.50;15711250;28;20055;-73
2023/11/29 05:08:17;;;;;;;0.00;0.00;;;;;;;-2.75;75.85;99781.00;15728037;28;20048;-74
2023/11/29 05:15:52;;;;;;;0.00;0.00;;;;;;;-2.61;75.60;99788.34;15736640;28;20055;-72
2023/11/29 05:23:29;;;;;;;0.00;0.00;;;;;;;-2.83;75.68;99802.72;15735288;28;20462;-73
2023/11/29 05:31:06;;;;;;;0.00;0.00;;;;;;;-2.70;75.59;99778.75;15710038;22;20103;-51
2023/11/29 05:38:43;;;;;;;0.00;0.00;;;;;;;-2.50;75.26;99774.16;15655641;28;20041;-49
2023/11/29 05:46:18;;;;;;;0.00;0.00;;;;;;;-2.35;74.92;99784.97;15654082;28;20056;-50
2023/11/29 05:53:52;;;;;;;0.00;0.00;;;;;;;-2.54;76.18;99772.81;15636705;28;20048;-47
2023/11/29 06:01:26;;;;;;;0.00;0.00;;;;;;;-2.84;78.01;99768.75;15670310;28;20128;-48
2023/11/29 06:09:01;;;;;;;0.00;0.00;;;;;;;-2.71;78.54;99758.69;15670293;28;20052;-50
2023/11/29 06:16:36;;;;;;;0.00;0.00;;;;;;;-2.71;79.15;99758.69;15637324;28;20029;-51
2023/11/29 06:24:10;;;;;;;0.00;0.00;;;;;;;-2.87;79.88;99766.41;15670571;28;20155;-47
2023/11/29 06:31:46;;;;;;;0.00;0.00;;;;;;;-3.02;80.96;99749.50;15671488;28;20053;-45
2023/11/29 06:39:21;;;;;;;0.00;0.00;;;;;;;-2.71;80.41;99752.59;15671000;28;20090;-50
2023/11/29 06:46:57;;;;;;;0.00;0.00;;;;;;;-2.55;80.07;99767.72;15652101;28;20045;-49
2023/11/29 06:54:30;;;;;;;0.20;0.20;;;;;;;-2.55;80.24;99768.53;15662715;28;20040;-49
2023/11/29 07:02:06;;;;;;;0.00;0.00;;;;;;;-2.52;79.36;99756.88;15646033;28;20049;-49
2023/11/29 07:09:40;;;;;;;0.00;0.00;;;;;;;-2.37;78.18;99752.78;15640337;28;20515;-47
2023/11/29 07:17:15;;;;;;;0.35;0.35;;;;;;;-2.53;79.83;99747.38;15646959;28;20044;-51
2023/11/29 07:24:49;;;;;;;0.05;0.05;;;;;;;-2.39;79.20;99750.28;15681544;28;20049;-48
2023/11/29 07:32:30;;;;;;;0.22;0.22;;;;;;;-2.39;79.13;99749.47;15680773;28;20040;-45
2023/11/29 07:40:04;;;;;;;0.00;0.00;;;;;;;-2.25;79.47;99742.84;15679924;28;20045;-48
2023/11/29 07:47:39;;;;;;;0.05;0.05;;;;;;;-2.24;78.83;99744.47;15661806;28;20103;-45
2023/11/29 07:55:18;;;;;;;0.00;0.00;;;;;;;-1.97;78.81;99754.06;15661806;28;20122;-50
2023/11/29 08:02:54;;;;;;;0.00;0.00;;;;;;;-2.00;78.61;99731.53;15677364;28;20053;-46
2023/11/29 08:10:30;;;;;;;0.00;0.00;;;;;;;-1.65;77.69;99738.47;15658366;28;20196;-48
2023/11/29 08:18:07;;;;;;;0.00;0.00;;;;;;;-2.04;79.68;99740.72;15627175;28;20135;-52
2023/11/29 08:25:43;;;;;;;0.00;0.00;;;;;;;-2.17;80.24;99730.59;15677050;28;20454;-50
2023/11/29 08:33:18;;;;;;;0.00;0.00;;;;;;;-1.92;79.08;99733.38;15677062;28;20052;-49
2023/11/29 08:40:51;;;;;;;0.25;0.25;;;;;;;-2.25;78.78;99685.03;15676401;28;20079;-46
2023/11/29 08:48:28;;;;;;;0.00;0.00;;;;;;;-1.64;77.55;99724.34;15677500;28;20037;-48
2023/11/29 08:56:02;;;;;;;0.00;0.00;;;;;;;-1.80;77.45;99711.09;15657626;28;20088;-48
2023/11/29 09:03:40;;;;;;;0.00;0.00;;;;;;;-1.61;76.45;99718.78;15657532;28;20334;-49
2023/11/29 09:11:14;;;;;;;0.00;0.00;;;;;;;-1.86;78.19;99711.75;15674968;28;20045;-48
2023/11/29 09:18:48;;;;;;;0.00;0.00;;;;;;;-1.68;77.19;99703.75;15657458;28;20041;-48
2023/11/29 09:26:22;;;;;;;0.08;0.08;;;;;;;-1.39;76.13;99696.34;15673656;28;20050;-46
2023/11/29 09:33:57;;;;;;;0.28;0.28;;;;;;;-1.02;74.75;99699.59;15673678;28;20145;-48
2023/11/29 09:41:31;;;;;;;0.00;0.00;;;;;;;-0.66;73.77;99685.13;15665702;28;20044;-53
2023/11/29 09:49:07;;;;;;;0.00;0.00;;;;;;;-0.74;74.48;99685.16;15672780;28;20041;-46
2023/11/29 09:56:41;;;;;;;0.10;0.10;;;;;;;-1.00;77.66;99690.53;15673221;28;20120;-45
2023/11/29 10:04:20;;;;;;;0.00;0.00;;;;;;;-0.77;78.28;99667.00;15671818;28;20053;-47
2023/11/29 10:11:54;;;;;;;0.00;0.00;;;;;;;-0.52;78.41;99662.56;15654228;28;20474;-50
2023/11/29 10:19:29;;;;;;;0.15;0.15;;;;;;;-0.37;77.86;99658.28;15654039;28;20059;-51
2023/11/29 10:27:06;;;;;;;0.00;0.00;;;;;;;0.02;76.74;99654.91;15671379;28;20048;-50
2023/11/29 10:34:41;;;;;;;0.20;0.20;;;;;;;-0.09;77.06;99650.84;15676803;28;20422;-46
2023/11/29 10:42:15;;;;;;;1.27;0.68;;;;;;;0.10;75.99;99646.16;15683361;28;20127;-46
2023/11/29 10:49:57;;;;;;;0.00;0.00;;;;;;;-0.65;78.20;99618.28;15665478;28;20127;-46
2023/11/29 10:57:49;;;;;;;0.00;0.00;;;;;;;-0.41;79.07;99632.44;15683106;28;20450;-50
2023/11/29 11:05:26;;;;;;;0.00;0.00;;;;;;;-0.11;78.27;99634.34;15663846;28;20062;-50
2023/11/29 11:13:15;;;;;;;0.00;0.00;;;;;;;0.05;77.32;99619.44;15681332;28;20084;-47
2023/11/29 11:20:55;;;;;;;0.03;0.03;;;;;;;0.02;78.10;99614.53;15663785;28;20587;-48
2023/11/29 11:28:32;;;;;;;0.00;0.00;;;;;;;0.09;77.80;99608.38;15680865;28;20033;-47
2023/11/29 11:36:07;;;;;;;0.57;0.57;;;;;;;-0.60;81.11;99612.53;15680029;28;20470;-46
2023/11/29 11:43:43;;;;;;;0.05;0.05;;;;;;;-0.36;80.94;99588.75;15681262;28;20103;-48
2023/11/29 11:51:22;;;;;;;0.00;0.00;;;;;;;-0.36;81.59;99586.13;15680886;28;20068;-52
2023/11/29 11:58:57;;;;;;;0.05;0.05;;;;;;;-0.24;81.10;99596.28;15662993;28;20154;-50
2023/11/29 12:06:34;;;;;;;0.10;0.10;;;;;;;-0.22;80.37;99586.41;15672520;28;20060;-51
2023/11/29 12:14:10;;;;;;;0.00;0.00;;;;;;;-0.37;81.69;99583.66;15645839;28;20045;-49
2023/11/29 12:21:45;;;;;;;0.43;0.40;;;;;;;-0.48;81.80;99576.09;15679011;28;20488;-49
2023/11/29 12:29:20;;;;;;;0.00;0.00;;;;;;;-0.10;81.96;99571.84;15678540;28;20051;-48
2023/11/29 12:36:59;;;;;;;0.30;0.30;;;;;;;-0.16;82.01;99568.09;15660756;28;20474;-50
2023/11/29 12:44:35;;;;;;;0.00;0.00;;;;;;;-0.33;82.81;99564.69;15676225;28;20041;-53
2023/11/29 12:52:11;;;;;;;0.15;0.15;;;;;;;0.07;82.04;99552.34;15675726;28;20523;-51
2023/11/29 12:59:45;;;;;;;2.35;1.77;;;;;;;-0.10;82.39;99546.31;15641961;28;20076;-49
2023/11/29 13:07:20;;;;;;;0.00;0.00;;;;;;;0.15;82.48;99541.75;15676219;28;20044;-51
2023/11/29 13:14:55;;;;;;;0.20;0.20;;;;;;;-0.08;82.98;99539.06;15663828;28;20055;-49
2023/11/29 13:22:29;;;;;;;;;;;;;;;-0.16;83.45;99544.34;15674862;28;20063;-48
2023/11/29 13:30:03;;;;;;;0.45;0.45;;;;;;;-0.14;83.64;99537.13;15660583;28;19921;-50
2023/11/29 13:37:38;;;;;;;0.00;0.00;;;;;;;-0.10;82.76;99537.56;15655773;28;20495;-51
2023/11/29 13:45:12;;;;;;;0.10;0.10;;;;;;;-0.43;83.49;99529.78;15644646;28;20100;-49
2023/11/29 13:52:47;;;;;;;0.10;0.10;;;;;;;-0.19;83.25;99530.69;15672140;28;20103;-49
2023/11/29 14:00:21;;;;;;;0.00;0.00;;;;;;;-0.20;83.99;99536.97;15673214;28;20502;-51
2023/11/29 14:07:57;;;;;;;0.08;0.08;;;;;;;-0.18;83.38;99530.53;15672665;28;20056;-51
2023/11/29 14:15:30;;;;;;;0.00;0.00;;;;;;;-0.11;83.12;99535.94;15665004;28;20045;-53
2023/11/29 14:23:05;;;;;;;0.00;0.00;;;;;;;-0.16;83.39;99519.81;15672978;28;20075;-52
2023/11/29 14:30:41;;;;;;;0.10;0.10;;;;;;;-0.28;83.67;99520.19;15650763;28;20037;-50
2023/11/29 14:38:16;;;;;;;0.00;0.00;;;;;;;-0.13;83.72;99519.47;15670648;28;20467;-48
2023/11/29 14:45:49;;;;;;;0.00;0.00;;;;;;;-0.28;83.50;99516.69;15672638;28;20496;-49
2023/11/29 14:53:24;;;;;;;0.10;0.10;;;;;;;-0.26;84.02;99507.66;15660102;28;20045;-50
2023/11/29 15:00:58;;;;;;;0.82;0.80;;;;;;;-0.47;85.07;99464.38;15668997;28;20067;-50
2023/11/29 15:08:34;;;;;;;0.00;0.00;;;;;;;-0.24;85.57;99496.91;15672048;28;20094;-47
2023/11/29 15:16:08;;;;;;;0.00;0.00;;;;;;;-0.10;84.94;99490.09;15672127;28;20091;-51
2023/11/29 15:23:43;;;;;;;0.10;0.10;;;;;;;0.19;85.04;99492.94;15664210;28;20025;-50
2023/11/29 15:31:16;;;;;;;2.58;2.35;;;;;;;0.15;83.59;99496.91;15664444;28;20045;-48
2023/11/29 15:38:52;;;;;;;0.10;0.10;;;;;;;-0.11;85.00;99486.66;15681282;28;20041;-47
2023/11/29 15:46:26;;;;;;;0.22;0.22;;;;;;;0.10;84.42;99480.78;15680897;28;20055;-50
2023/11/29 15:54:02;;;;;;;0.10;0.10;;;;;;;0.16;84.11;99481.91;15680475;28;20452;-48
2023/11/29 16:01:37;;;;;;;0.22;0.22;;;;;;;0.12;83.79;99483.22;15655613;28;20451;-51
2023/11/29 16:09:19;;;;;;;0.30;0.30;;;;;;;0.17;83.32;99465.88;15680218;28;20068;-51
2023/11/29 16:16:53;;;;;;;0.00;0.00;;;;;;;0.21;83.90;99474.28;15679135;28;20480;-51
2023/11/29 16:24:28;;;;;;;0.30;0.30;;;;;;;0.33;84.18;99478.16;15678941;28;20128;-51
2023/11/29 16:32:04;;;;;;;0.15;0.15;;;;;;;0.59;83.04;99466.41;15679028;28;20047;-50
2023/11/29 16:39:40;;;;;;;0.20;0.20;;;;;;;0.47;83.11;99471.31;15671967;28;20051;-51
2023/11/29 16:47:13;;;;;;;0.10;0.10;;;;;;;0.43;84.22;99473.47;15660758;28;20048;-51
2023/11/29 16:54:48;;;;;;;;;;;;;;;0.34;85.39;99469.25;15644593;28;20132;-49
2023/11/29 17:02:22;;;;;;;0.00;0.00;;;;;;;0.38;85.39;99470.53;15657707;28;19931;-48
2023/11/29 17:09:57;;;;;;;0.57;0.52;;;;;;;0.46;85.15;99478.38;15676805;28;20045;-49
2023/11/29 17:17:30;;;;;;;0.30;0.30;;;;;;;0.61;84.54;99480.28;15659001;28;20041;-52
2023/11/29 17:25:05;;;;;;;;;;;;;;;0.29;85.72;99500.63;15675656;28;20080;-52
2023/11/29 17:32:39;;;;;;;0.15;0.15;;;;;;;0.77;83.99;99493.34;15674471;28;20487;-52
2023/11/29 17:40:14;;;;;;;;;;;;;;;0.94;83.73;99512.53;15657024;28;20504;-50
2023/11/29 17:47:48;;;;;;;0.10;0.10;;;;;;;0.49;85.59;99517.63;15674082;28;19927;-49
2023/11/29 17:55:23;;;;;;;0.60;0.57;;;;;;;0.76;84.21;99524.22;15657164;28;20045;-51
2023/11/29 18:02:56;;;;;;;2.20;1.17;;;;;;;0.46;84.71;99541.72;15656484;28;20419;-49
2023/11/29 18:10:46;;;;;;;;;;;;;;;0.97;83.09;99539.41;15674131;28;20049;-52
2023/11/29 18:18:19;;;;;;;0.85;0.40;;;;;;;0.66;83.20;99543.94;15672609;28;19921;-51
2023/11/29 18:25:54;;;;;;;;;;;;;;;0.45;83.42;99544.56;15674315;28;20064;-49
2023/11/29 18:33:30;;;;;;;0.35;0.35;;;;;;;0.44;82.87;99558.75;15675498;28;20366;-56
2023/11/29 18:41:08;;;;;;;0.00;0.00;;;;;;;0.31;83.47;99567.22;15653684;28;20052;-51
2023/11/29 18:48:43;;;;;;;0.28;0.28;;;;;;;0.35;83.49;99578.28;15671122;28;20444;-52
2023/11/29 18:56:18;;;;;;;0.08;0.08;;;;;;;0.41;83.21;99585.50;15682349;28;20124;-53
2023/11/29 19:03:51;;;;;;;0.00;0.00;;;;;;;0.35;83.23;99586.19;15685671;28;20107;-52
2023/11/29 19:11:27;;;;;;;0.10;0.10;;;;;;;0.58;82.48;99596.81;15665371;28;20785;-51
2023/11/29 19:19:03;;;;;;;0.40;0.40;;;;;;;0.25;83.63;99602.25;15665468;28;20080;-52
2023/11/29 19:26:38;;;;;;;0.25;0.25;;;;;;;0.27;83.20;99618.72;15682752;28;20106;-51
2023/11/29 19:34:12;;;;;;;0.22;0.22;;;;;;;0.47;82.69;99613.84;15683576;28;20513;-51
2023/11/29 19:41:47;;;;;;;0.00;0.00;;;;;;;0.19;82.72;99626.69;15681654;28;20095;-52
2023/11/29 19:49:20;;;;;;;0.00;0.00;;;;;;;0.19;82.69;99624.03;15681302;28;20095;-50
2023/11/29 19:56:55;;;;;;;0.10;0.10;;;;;;;0.54;81.17;99641.19;15658081;28;20047;-51
2023/11/29 20:04:28;;;;;;;0.05;0.05;;;;;;;0.19;81.82;99624.88;15645240;28;20037;-49
2023/11/29 20:12:05;;;;;;;0.43;0.43;;;;;;;0.63;80.22;99655.19;15662103;28;20045;-50
2023/11/29 20:19:39;;;;;;;0.25;0.25;;;;;;;0.08;81.80;99659.50;15671809;28;20061;-51
2023/11/29 20:27:15;;;;;;;0.00;0.00;;;;;;;0.07;81.95;99678.16;15679573;28;20526;-49
2023/11/29 20:34:49;;;;;;;0.10;0.10;;;;;;;0.35;81.37;99676.75;15627891;28;20041;-50
2023/11/29 20:42:23;;;;;;;;;;;;;;;0.18;80.96;99688.34;15678954;28;20052;-50
2023/11/29 20:49:57;;;;;;;0.73;0.73;;;;;;;0.01;81.54;99694.66;15660774;28;20537;-50
2023/11/29 20:57:32;;;;;;;0.10;0.10;;;;;;;0.11;81.87;99705.84;15676803;28;20049;-51
2023/11/29 21:05:06;;;;;;;0.00;0.00;;;;;;;0.06;82.50;99706.34;15645150;28;20543;-50
2023/11/29 21:12:41;;;;;;;0.00;0.00;;;;;;;-0.06;83.60;99718.22;15672837;28;20124;-51
2023/11/29 21:20:17;;;;;;;0.00;0.00;;;;;;;0.11;81.95;99716.41;15675389;28;20045;-50
2023/11/29 21:27:51;;;;;;;0.38;0.38;;;;;;;0.15;81.99;99729.09;15676213;28;20045;-50
2023/11/29 21:35:25;;;;;;;0.00;0.00;;;;;;;-0.18;82.59;99735.41;15674923;28;20522;-48
2023/11/29 21:43:00;;;;;;;0.50;0.50;;;;;;;-0.38;83.15;99730.44;15672312;28;20041;-49
2023/11/29 21:50:35;;;;;;;0.00;0.00;;;;;;;-0.14;80.67;99747.25;15675954;28;20057;-50
2023/11/29 21:58:10;;;;;;;0.00;0.00;;;;;;;-0.22;80.07;99749.91;15673617;28;20071;-49
2023/11/29 22:05:43;;;;;;;0.17;0.17;;;;;;;-0.12;79.32;99775.13;15674120;28;20040;-54
2023/11/29 22:13:18;;;;;;;0.00;0.00;;;;;;;-0.15;79.41;99767.53;15656990;28;20107;-52
2023/11/29 22:20:52;;;;;;;0.73;0.73;;;;;;;-0.24;79.08;99773.78;15675661;28;20069;-50
2023/11/29 22:28:27;;;;;;;0.05;0.05;;;;;;;-0.30;79.37;99788.47;15674527;28;20060;-51
2023/11/29 22:36:01;;;;;;;0.00;0.00;;;;;;;-0.60;78.73;99786.44;15673742;28;20064;-48
2023/11/29 22:43:37;;;;;;;1.27;1.20;;;;;;;-0.66;78.57;99785.25;15673980;28;20045;-48
2023/11/29 22:51:12;;;;;;;0.22;0.22;;;;;;;-0.82;79.19;99756.25;15672596;28;20037;-51
2023/11/29 22:58:47;;;;;;;0.00;0.00;;;;;;;-0.75;78.05;99803.84;15654090;28;20144;-50
2023/11/29 23:06:23;;;;;;;0.00;0.00;;;;;;;-0.83;79.26;99805.50;15637774;28;20051;-52
2023/11/29 23:14:00;;;;;;;0.00;0.00;;;;;;;-0.62;78.59;99805.03;15640657;28;20045;-50
2023/11/29 23:21:33;;;;;;;0.00;0.00;;;;;;;-0.92;80.36;99816.16;15648419;28;20099;-50
2023/11/29 23:29:09;;;;;;;0.00;0.00;;;;;;;-0.77;80.29;99819.81;15670432;28;20092;-50
2023/11/29 23:36:43;;;;;;;0.00;0.00;;;;;;;-0.26;78.01;99829.34;15669855;28;20613;-48
2023/11/29 23:44:17;;;;;;;0.45;0.45;;;;;;;-0.69;80.00;99842.75;15680441;28;20061;-50
2023/11/29 23:51:52;;;;;;;1.00;0.55;;;;;;;-0.36;78.89;99839.22;15664447;28;20139;-48
2023/11/29 23:59:26;;;;;;;0.00;0.00;;;;;;;-0.18;79.20;99844.34;15663783;28;20053;-47
